.
WxDataArchive / Data Records for 2006-08-02
2006-08-01 August 2006 2006-08-03

Data Records for Wednesday, 02 August 2006

Time	Temp	Chill	HIndex	Humid	Dewpt	 Wind 	HiWind	WindDir	Rain 	Barom 
-----	----	-----	------	-----	-----	------	------	-------	-----	----- 
00:00	83.2	83.2	89.7	73	73.6	1	4	270	0.00	29.873 
00:05	83.0	83.0	89.5	74	73.8	0	2	248	0.00	29.873 
00:10	82.8	82.8	89.3	75	74.0	0	2	248	0.00	29.873 
00:15	82.4	82.4	88.4	75	73.7	0	2	248	0.00	29.873 
00:20	82.2	82.2	88.3	76	73.9	0	1	248	0.00	29.873 
00:25	81.8	81.8	87.6	77	73.9	0	1	248	0.00	29.873 
00:30	81.4	81.4	86.9	78	73.9	0	2	248	0.00	29.870 
00:35	81.1	81.1	86.5	79	73.9	0	1	248	0.00	29.870 
00:40	80.9	80.9	86.0	79	73.8	1	3	248	0.00	29.870 
00:45	80.9	80.9	86.0	79	73.8	1	4	248	0.00	29.871 
00:50	80.9	80.9	86.0	79	73.8	0	2	248	0.00	29.871 
00:55	80.7	80.7	85.6	79	73.6	0	1	270	0.00	29.871 
01:00	80.7	80.7	85.6	79	73.6	1	2	315	0.00	29.868 
01:05	80.7	80.7	85.6	79	73.6	1	3	270	0.00	29.868 
01:10	80.5	80.5	85.1	79	73.4	0	2	270	0.00	29.868 
01:15	80.5	80.5	85.1	79	73.4	1	3	270	0.00	29.869 
01:20	80.3	80.3	84.7	79	73.2	0	2	270	0.00	29.869 
01:25	80.3	80.3	84.7	79	73.2	0	2	270	0.00	29.869 
01:30	80.1	80.1	84.4	80	73.4	0	2	270	0.00	29.858 
01:35	79.9	79.9	84.0	80	73.2	0	2	270	0.00	29.858 
01:40	79.8	79.8	83.8	80	73.1	0	2	270	0.00	29.858 
01:45	79.8	79.8	83.9	81	73.4	0	2	270	0.00	29.862 
01:50	79.9	79.9	84.0	80	73.2	1	3	270	0.00	29.862 
01:55	79.9	79.9	84.0	80	73.2	0	2	248	0.00	29.862 
02:00	79.9	79.9	84.0	80	73.2	1	3	248	0.00	29.857 
02:05	79.8	79.8	83.8	80	73.1	1	4	248	0.00	29.857 
02:10	79.8	79.8	83.8	80	73.1	1	4	248	0.00	29.857 
02:15	79.8	79.8	83.8	80	73.1	0	2	248	0.00	29.856 
02:20	79.8	79.8	83.8	80	73.1	1	4	248	0.00	29.856 
02:25	79.9	79.9	83.9	79	72.8	1	2	248	0.00	29.856 
02:30	80.1	80.1	84.3	79	73.0	1	3	248	0.00	29.859 
02:35	80.1	80.1	84.3	79	73.0	1	3	248	0.00	29.859 
02:40	80.1	80.1	84.3	79	73.0	1	3	270	0.00	29.859 
02:45	80.1	80.1	84.2	78	72.6	2	4	248	0.00	29.855 
02:50	80.1	80.1	84.3	79	73.0	1	3	248	0.00	29.855 
02:55	80.1	80.1	84.3	79	73.0	1	4	248	0.00	29.855 
03:00	80.1	80.1	84.3	79	73.0	1	3	248	0.00	29.859 
03:05	80.3	80.3	84.6	78	72.8	1	4	270	0.00	29.859 
03:10	80.1	80.1	84.2	78	72.6	1	3	248	0.00	29.859 
03:15	79.9	79.9	83.9	79	72.8	1	4	248	0.00	29.857 
03:20	79.8	79.8	83.7	79	72.7	1	3	248	0.00	29.857 
03:25	79.6	79.6	83.4	80	72.9	1	4	248	0.00	29.857 
03:30	79.6	79.6	83.4	80	72.9	1	4	248	0.00	29.855 
03:35	79.6	79.6	83.4	80	72.9	2	4	248	0.00	29.855 
03:40	79.6	79.6	83.4	80	72.9	1	3	270	0.00	29.855 
03:45	79.6	79.6	83.4	80	72.9	1	4	248	0.00	29.854 
03:50	79.4	79.4	83.1	81	73.0	1	3	248	0.00	29.854 
03:55	79.2	79.2	82.7	81	72.8	2	4	248	0.00	29.854 
04:00	79.2	79.2	82.7	81	72.8	2	4	248	0.00	29.852 
04:05	79.4	79.4	83.1	81	73.0	2	7	248	0.00	29.852 
04:10	79.2	79.2	82.7	81	72.8	2	4	248	0.00	29.852 
04:15	79.2	79.2	82.7	81	72.8	1	4	248	0.00	29.844 
04:20	79.0	79.0	82.3	81	72.7	2	4	248	0.00	29.844 
04:25	79.0	79.0	82.3	82	73.0	2	5	248	0.00	29.844 
04:30	79.0	79.0	82.3	81	72.7	2	5	248	0.00	29.842 
04:35	79.0	79.0	82.3	82	73.0	1	4	248	0.00	29.842 
04:40	78.8	78.8	81.9	82	72.8	1	3	248	0.00	29.842 
04:45	78.6	78.6	81.5	82	72.6	1	5	248	0.00	29.846 
04:50	78.6	78.6	81.6	83	73.0	1	3	248	0.00	29.846 
04:55	78.6	78.6	81.5	82	72.6	2	7	270	0.00	29.846 
05:00	78.6	78.6	81.6	83	73.0	2	6	248	0.00	29.841 
05:05	78.6	78.6	81.6	83	73.0	2	5	248	0.00	29.841 
05:10	78.5	78.5	81.4	83	72.9	2	4	248	0.00	29.841 
05:15	78.6	78.6	81.6	83	73.0	2	7	248	0.00	29.839 
05:20	78.6	78.6	81.6	83	73.0	2	5	270	0.00	29.839 
05:25	78.6	78.6	81.6	83	73.0	2	5	248	0.00	29.839 
05:30	78.5	78.5	81.4	83	72.9	2	6	248	0.00	29.841 
05:35	78.5	78.5	81.4	83	72.9	1	4	248	0.00	29.841 
05:40	78.6	78.6	81.5	82	72.6	2	6	225	0.00	29.841 
05:45	78.6	78.6	81.6	83	73.0	1	3	225	0.00	29.843 
05:50	78.5	78.5	81.4	83	72.9	1	5	270	0.00	29.843 
05:55	78.3	78.3	81.0	83	72.7	1	4	248	0.00	29.843 
06:00	78.3	78.3	81.0	84	73.1	1	3	248	0.00	29.854 
06:05	78.3	78.3	81.0	83	72.7	2	6	270	0.00	29.854 
06:10	78.3	78.3	81.0	83	72.7	1	3	248	0.00	29.854 
06:15	78.1	78.1	80.6	84	72.9	1	3	248	0.00	29.854 
06:20	77.9	77.9	80.2	84	72.7	1	3	248	0.00	29.854 
06:25	77.9	77.9	80.2	84	72.7	2	5	270	0.00	29.854 
06:30	78.1	78.1	80.6	84	72.9	2	5	248	0.00	29.858 
06:35	78.1	78.1	80.6	84	72.9	2	5	248	0.00	29.858 
06:40	77.9	77.9	80.2	84	72.7	1	4	248	0.00	29.858 
06:45	77.9	77.9	80.2	84	72.7	1	2	248	0.00	29.860 
06:50	77.9	77.9	80.2	84	72.7	1	4	248	0.00	29.860 
06:55	78.1	78.1	80.6	83	72.5	1	3	270	0.00	29.860 
07:00	77.9	77.9	80.2	84	72.7	0	3	270	0.00	29.861 
07:05	77.9	77.9	80.2	84	72.7	1	3	270	0.00	29.861 
07:10	77.9	77.9	80.2	84	72.7	1	2	248	0.00	29.861 
07:15	78.1	78.1	80.6	83	72.5	1	3	248	0.00	29.871 
07:20	78.3	78.3	81.0	83	72.7	1	2	270	0.00	29.871 
07:25	78.3	78.3	81.0	83	72.7	1	3	248	0.00	29.871 
07:30	78.5	78.5	81.3	82	72.5	1	3	248	0.00	29.867 
07:35	78.8	78.8	81.9	82	72.8	1	3	270	0.00	29.867 
07:40	79.0	79.0	82.3	81	72.7	1	3	270	0.00	29.867 
07:45	79.2	79.2	82.7	81	72.8	1	4	248	0.00	29.863 
07:50	79.4	79.4	83.1	81	73.0	2	3	248	0.00	29.863 
07:55	79.6	79.6	83.4	80	72.9	1	3	248	0.00	29.863 
08:00	79.9	79.9	84.0	80	73.2	1	3	270	0.00	29.858 
08:05	80.1	80.1	84.3	79	73.0	2	5	248	0.00	29.858 
08:10	80.3	80.3	84.7	79	73.2	1	4	248	0.00	29.858 
08:15	80.7	80.7	85.4	78	73.2	2	5	248	0.00	29.868 
08:20	80.9	80.9	85.7	77	73.0	2	5	248	0.00	29.868 
08:25	80.9	80.9	85.8	78	73.4	2	5	270	0.00	29.868 
08:30	81.1	81.1	86.1	77	73.2	3	5	270	0.00	29.861 
08:35	81.2	81.2	86.1	76	72.9	3	6	270	0.00	29.861 
08:40	81.4	81.4	86.5	76	73.1	3	5	248	0.00	29.861 
08:45	81.6	81.6	86.9	76	73.3	3	7	248	0.00	29.863 
08:50	81.8	81.8	87.4	76	73.5	2	5	270	0.00	29.863 
08:55	82.0	82.0	87.6	75	73.3	3	6	270	0.00	29.863 
09:00	82.4	82.4	88.4	75	73.7	2	5	248	0.00	29.857 
09:05	82.4	82.4	88.4	75	73.7	2	5	248	0.00	29.857 
09:10	82.6	82.6	88.9	75	73.8	2	6	248	0.00	29.857 
09:15	82.8	82.8	89.1	74	73.6	2	6	270	0.00	29.871 
09:20	82.8	82.8	89.1	74	73.6	4	9	270	0.00	29.871 
09:25	82.8	82.8	89.1	74	73.6	3	9	270	0.00	29.871 
09:30	83.2	83.2	90.0	74	74.0	2	4	248	0.00	29.872 
09:35	83.4	83.4	90.1	73	73.8	2	4	248	0.00	29.872 
09:40	83.6	83.6	90.9	74	74.4	2	5	270	0.00	29.872 
09:45	84.0	84.0	91.5	73	74.4	2	7	248	0.00	29.864 
09:50	84.1	84.1	91.7	73	74.5	3	7	248	0.00	29.864 
09:55	84.1	84.1	91.4	72	74.1	3	5	270	0.00	29.864 
10:00	84.3	84.3	91.5	71	73.8	3	7	270	0.00	29.868 
10:05	84.3	84.3	91.5	71	73.8	4	9	270	0.00	29.868 
10:10	84.3	84.3	91.5	71	73.8	3	8	248	0.00	29.868 
10:15	84.7	84.7	92.8	72	74.6	3	5	248	0.00	29.868 
10:20	85.1	85.1	92.6	69	73.8	3	6	270	0.00	29.868 
10:25	85.5	85.5	93.9	70	74.6	2	6	270	0.00	29.868 
10:30	85.9	85.9	94.4	69	74.5	2	6	270	0.00	29.864 
10:35	86.1	86.1	94.9	69	74.7	3	5	248	0.00	29.864 
10:40	86.1	86.1	94.4	68	74.3	3	6	270	0.00	29.864 
10:45	86.5	86.5	94.1	65	73.3	3	9	270	0.00	29.863 
10:50	86.7	86.7	94.1	64	73.0	3	6	270	0.00	29.863 
10:55	86.7	86.7	95.4	67	74.4	3	6	248	0.00	29.863 
11:00	87.0	87.0	95.7	66	74.2	3	7	270	0.00	29.857 
11:05	87.0	87.0	95.2	65	73.8	4	10	270	0.00	29.857 
11:10	87.2	87.2	95.2	64	73.5	4	9	270	0.00	29.857 
11:15	87.6	87.6	96.6	65	74.3	3	6	248	0.00	29.856 
11:20	87.6	87.6	95.7	63	73.4	4	7	270	0.00	29.856 
11:25	87.8	87.8	96.6	64	74.1	3	7	248	0.00	29.856 
11:30	88.2	88.2	96.5	62	73.5	3	6	248	0.00	29.857 
11:35	88.4	88.4	97.0	62	73.7	4	9	248	0.00	29.857 
11:40	88.4	88.4	97.5	63	74.2	3	9	248	0.00	29.857 
11:45	88.4	88.4	97.0	62	73.7	4	6	270	0.00	29.856 
11:50	89.0	89.0	97.9	61	73.8	3	7	270	0.00	29.856 
11:55	89.0	89.0	97.9	61	73.8	4	8	270	0.00	29.856 
12:00	89.3	89.3	98.0	60	73.6	4	9	248	0.00	29.847 
12:05	89.5	89.5	98.0	59	73.2	3	8	270	0.00	29.847 
12:10	89.7	89.7	98.4	59	73.4	4	7	270	0.00	29.847 
12:15	89.9	89.9	98.3	58	73.1	4	9	270	0.00	29.842 
12:20	90.1	90.1	99.9	60	74.3	3	7	248	0.00	29.842 
12:25	90.3	90.3	99.3	58	73.5	4	7	270	0.00	29.842 
12:30	90.3	90.3	99.3	58	73.5	2	7	248	0.00	29.841 
12:35	90.7	90.7	98.5	55	72.3	4	14	270	0.00	29.841 
12:40	90.7	90.7	98.5	55	72.3	5	10	270	0.00	29.841 
12:45	90.7	90.7	99.1	56	72.8	3	9	248	0.00	29.838 
12:50	90.7	90.7	99.1	56	72.8	4	8	270	0.00	29.838 
12:55	91.4	91.4	101.3	57	74.0	2	7	270	0.00	29.838 
13:00	91.6	91.6	101.1	56	73.6	4	10	270	0.00	29.835 
13:05	91.4	91.4	100.1	55	72.9	4	7	270	0.00	29.835 
13:10	91.4	91.4	100.7	56	73.5	4	10	248	0.00	29.835 
13:15	91.6	91.6	99.9	54	72.6	4	7	270	0.00	29.829 
13:20	91.8	91.8	100.4	54	72.7	3	9	270	0.00	29.829 
13:25	92.3	92.3	100.9	53	72.6	3	7	248	0.00	29.829 
13:30	92.5	92.5	102.0	54	73.4	3	6	270	0.00	29.826 
13:35	92.5	92.5	101.4	53	72.8	3	10	248	0.00	29.826 
13:40	92.3	92.3	101.5	54	73.2	4	9	270	0.00	29.826 
13:45	92.5	92.5	102.0	54	73.4	3	6	248	0.00	29.823 
13:50	92.7	92.7	102.5	54	73.6	3	10	270	0.00	29.823 
13:55	92.5	92.5	101.4	53	72.8	3	7	270	0.00	29.823 
14:00	92.5	92.5	100.8	52	72.3	4	10	270	0.00	29.822 
14:05	92.5	92.5	102.0	54	73.4	3	7	270	0.00	29.822 
14:10	92.5	92.5	102.0	54	73.4	4	10	270	0.00	29.822 
14:15	92.7	92.7	101.8	53	73.0	3	7	270	0.00	29.817 
14:20	92.9	92.9	103.6	55	74.3	3	6	248	0.00	29.817 
14:25	92.9	92.9	102.9	54	73.8	4	7	248	0.00	29.817 
14:30	92.9	92.9	102.9	54	73.8	4	8	270	0.00	29.813 
14:35	92.9	92.9	102.9	54	73.8	4	7	248	0.00	29.813 
14:40	92.9	92.9	102.9	54	73.8	4	6	270	0.00	29.813 
14:45	93.2	93.2	101.7	51	72.3	4	7	270	0.00	29.807 
14:50	93.8	93.8	104.4	53	74.0	2	7	270	0.00	29.807 
14:55	94.0	94.0	105.6	54	74.8	3	7	248	0.00	29.807 
15:00	94.0	94.0	104.9	53	74.2	2	6	270	0.00	29.800 
15:05	94.3	94.3	104.9	52	73.9	2	5	248	0.00	29.800 
15:10	94.5	94.5	104.7	51	73.5	3	6	270	0.00	29.800 
15:15	94.5	94.5	104.7	51	73.5	3	9	270	0.00	29.793 
15:20	94.3	94.3	104.9	52	73.9	3	7	270	0.00	29.793 
15:25	94.3	94.3	104.9	52	73.9	3	7	248	0.00	29.793 
15:30	94.3	94.3	104.3	51	73.3	3	7	248	0.00	29.791 
15:35	94.3	94.3	104.9	52	73.9	3	7	270	0.00	29.791 
15:40	94.0	94.0	104.2	52	73.6	4	7	270	0.00	29.791 
15:45	94.0	94.0	104.2	52	73.6	4	7	270	0.00	29.792 
15:50	94.0	94.0	103.6	51	73.1	4	10	270	0.00	29.792 
15:55	94.0	94.0	106.3	55	75.3	3	7	270	0.00	29.792 
16:00	94.3	94.3	105.6	53	74.5	3	7	270	0.00	29.791 
16:05	94.3	94.3	103.6	50	72.8	4	9	270	0.00	29.791 
16:10	93.8	93.8	103.1	51	72.9	4	9	270	0.00	29.791 
16:15	93.8	93.8	103.7	52	73.5	3	7	270	0.00	29.790 
16:20	94.3	94.3	104.9	52	73.9	3	10	248	0.00	29.790 
16:25	93.8	93.8	103.1	51	72.9	5	10	270	0.00	29.790 
16:30	93.8	93.8	103.7	52	73.5	3	7	270	0.00	29.786 
16:35	93.6	93.6	103.9	53	73.8	3	10	248	0.00	29.786 
16:40	93.4	93.4	102.8	52	73.1	3	10	248	0.00	29.786 
16:45	93.4	93.4	103.5	53	73.7	4	9	270	0.00	29.784 
16:50	93.2	93.2	103.7	54	74.0	4	10	270	0.00	29.784 
16:55	93.6	93.6	104.6	54	74.4	2	5	270	0.00	29.784 
17:00	93.8	93.8	103.7	52	73.5	4	11	270	0.00	29.786 
17:05	93.4	93.4	102.8	52	73.1	4	9	270	0.00	29.786 
17:10	93.4	93.4	103.5	53	73.7	3	7	270	0.00	29.786 
17:15	93.6	93.6	103.9	53	73.8	3	6	270	0.00	29.780 
17:20	93.6	93.6	103.3	52	73.3	3	7	248	0.00	29.780 
17:25	93.2	93.2	101.7	51	72.3	4	9	270	0.00	29.780 
17:30	93.2	93.2	103.0	53	73.5	3	9	270	0.00	29.779 
17:35	92.9	92.9	101.7	52	72.6	4	10	270	0.00	29.779 
17:40	92.7	92.7	101.8	53	73.0	3	9	270	0.00	29.779 
17:45	92.7	92.7	102.5	54	73.6	3	13	270	0.00	29.778 
17:50	92.5	92.5	101.4	53	72.8	4	10	248	0.00	29.778 
17:55	92.3	92.3	100.9	53	72.6	4	10	270	0.00	29.778 
18:00	92.3	92.3	100.9	53	72.6	3	7	248	0.00	29.778 
18:05	92.3	92.3	101.5	54	73.2	3	7	270	0.00	29.778 
18:10	92.1	92.1	101.1	54	73.0	4	9	248	0.00	29.778 
18:15	92.1	92.1	101.1	54	73.0	3	10	270	0.00	29.774 
18:20	92.1	92.1	101.7	55	73.6	2	7	248	0.00	29.774 
18:25	91.6	91.6	99.9	54	72.6	4	7	270	0.00	29.774 
18:30	91.6	91.6	99.9	54	72.6	3	7	248	0.00	29.770 
18:35	91.6	91.6	99.9	54	72.6	3	6	248	0.00	29.770 
18:40	91.6	91.6	99.9	54	72.6	4	6	270	0.00	29.770 
18:45	91.4	91.4	99.5	54	72.4	3	7	248	0.00	29.778 
18:50	91.2	91.2	99.6	55	72.7	2	6	248	0.00	29.778 
18:55	91.4	91.4	100.1	55	72.9	2	3	248	0.00	29.778 
19:00	91.4	91.4	100.1	55	72.9	3	6	248	0.00	29.775 
19:05	91.2	91.2	99.0	54	72.2	4	11	270	0.00	29.775 
19:10	91.0	91.0	99.2	55	72.5	3	9	270	0.00	29.775 
19:15	90.7	90.7	98.5	55	72.3	3	5	248	0.00	29.772 
19:20	90.5	90.5	98.1	55	72.1	4	12	248	0.00	29.772 
19:25	90.3	90.3	97.6	55	71.9	4	13	270	0.00	29.772 
19:30	90.3	90.3	97.6	55	71.9	3	7	248	0.00	29.772 
19:35	90.3	90.3	98.2	56	72.4	3	12	248	0.00	29.772 
19:40	90.1	90.1	98.3	57	72.8	4	10	270	0.00	29.772 
19:45	89.9	89.9	98.3	58	73.1	4	12	248	0.00	29.770 
19:50	89.9	89.9	98.3	58	73.1	3	5	248	0.00	29.770 
19:55	89.7	89.7	98.4	59	73.4	3	6	270	0.00	29.770 
20:00	89.5	89.5	98.5	60	73.7	3	7	248	0.00	29.765 
20:05	89.0	89.0	97.9	61	73.8	3	6	270	0.00	29.765 
20:10	89.0	89.0	97.9	61	73.8	2	6	248	0.00	29.765 
20:15	89.0	89.0	97.9	61	73.8	3	6	270	0.00	29.764 
20:20	88.8	88.8	97.4	61	73.6	3	10	248	0.00	29.764 
20:25	88.6	88.6	97.0	61	73.4	3	7	270	0.00	29.764 
20:30	88.4	88.4	97.0	62	73.7	2	5	248	0.00	29.761 
20:35	88.0	88.0	96.1	62	73.3	2	7	270	0.00	29.761 
20:40	88.0	88.0	96.1	62	73.3	3	6	270	0.00	29.761 
20:45	88.0	88.0	96.1	62	73.3	2	5	248	0.00	29.761 
20:50	87.8	87.8	96.1	63	73.6	2	6	248	0.00	29.761 
20:55	87.6	87.6	95.7	63	73.4	3	7	248	0.00	29.761 
21:00	87.4	87.4	95.2	63	73.2	2	8	248	0.00	29.762 
21:05	87.4	87.4	95.2	63	73.2	3	6	270	0.00	29.762 
21:10	87.2	87.2	94.8	63	73.0	2	4	248	0.00	29.762 
21:15	87.2	87.2	95.2	64	73.5	2	9	270	0.00	29.753 
21:20	87.0	87.0	94.8	64	73.3	2	6	248	0.00	29.753 
21:25	86.7	86.7	94.1	64	73.0	2	5	248	0.00	29.753 
21:30	86.5	86.5	94.1	65	73.3	2	7	248	0.00	29.749 
21:35	86.5	86.5	94.1	65	73.3	2	4	248	0.00	29.749 
21:40	86.3	86.3	93.6	65	73.1	3	8	248	0.00	29.749 
21:45	86.1	86.1	93.2	65	72.9	2	6	248	0.00	29.756 
21:50	86.1	86.1	93.6	66	73.4	3	6	270	0.00	29.756 
21:55	86.1	86.1	93.6	66	73.4	2	10	248	0.00	29.756 
22:00	86.1	86.1	93.6	66	73.4	3	5	248	0.00	29.762 
22:05	85.9	85.9	93.2	66	73.2	2	6	248	0.00	29.762 
22:10	85.7	85.7	93.1	67	73.4	2	6	270	0.00	29.762 
22:15	85.7	85.7	92.7	66	73.0	2	7	338	0.00	29.775 
22:20	85.5	85.5	92.3	66	72.8	2	4	248	0.00	29.775 
22:25	85.5	85.5	92.3	66	72.8	3	6	248	0.00	29.775 
22:30	85.3	85.3	92.2	67	73.1	2	6	248	0.00	29.780 
22:35	85.5	85.5	92.3	66	72.8	3	5	248	0.00	29.780 
22:40	85.3	85.3	91.9	66	72.6	2	4	270	0.00	29.780 
22:45	85.1	85.1	91.5	66	72.4	2	4	248	0.00	29.796 
22:50	85.1	85.1	91.1	65	72.0	2	6	248	0.00	29.796 
22:55	85.1	85.1	91.1	65	72.0	2	5	248	0.00	29.796 
23:00	85.3	85.3	91.5	65	72.2	3	7	270	0.00	29.796 
23:05	85.1	85.1	90.8	64	71.5	2	5	248	0.00	29.796 
23:10	84.9	84.9	90.7	65	71.8	2	6	248	0.00	29.796 
23:15	84.7	84.7	90.3	65	71.6	3	5	270	0.00	29.791 
23:20	84.7	84.7	90.3	65	71.6	3	7	270	0.00	29.791 
23:25	84.7	84.7	90.3	65	71.6	2	6	248	0.00	29.791 
23:30	84.3	84.3	89.5	65	71.2	2	5	248	0.00	29.794 
23:35	84.1	84.1	89.4	66	71.5	1	4	248	0.00	29.794 
23:40	84.0	84.0	89.5	67	71.8	1	5	248	0.00	29.794 
23:45	84.0	84.0	89.5	67	71.8	2	4	248	0.00	29.802 
23:50	83.8	83.8	89.4	68	72.1	2	4	270	0.00	29.802 
23:55	83.6	83.6	89.0	68	71.9	2	4	248	0.00	29.802 

CoCoRaHS
IN-AL-39
A2 Web Hosting
Creative Commons License
GoDaddy
Look for:

loaded 2017-12-13 02:43:53 • last modified 2010-11-18 10:43:29
Privacy PolicyDisclaimer
• wx.awcolley.com is powered by PmWiki v.2002016 •
• all content (unless otherwise noted) © 2017 A W Colley